Latest Coastal Weather Observations for Broome

IDW60701

Issued at 4:43 am WST Monday 27 March 2017 (issued every 10 minutes, with the page automatically refreshed every 10 minutes)

About coastal observations | Map of coastal stations | Coastal observations for WA | Marine services | Other Formats
Station Details ID: 003003 Name: BROOME AIRPORT Lat: -17.95 Lon: 122.24 Height: 7.42 m
Data from the previous 72 hours. | See also: Recent months at Broome
Date/Time
WST
Temp
°C
Wind Pressure Rain since
9am
mm
Weather Cloud Vis
km
Sea
Height
m
Swell
Dir  Spd
kts
Gust
kts
hPa Trend Height
m
Period
s
Dir
27/04:30am 24.8 ENE 4 6 1009.2 - 0.0 - - 10 - - - -
27/04:00am 25.2 NNE 4 6 1008.7 - 0.0 - - 10 - - - -
27/03:30am 25.9 N 4 6 1008.5 - 0.0 - - 10 - - - -
27/03:00am 25.7 N 5 8 1008.4 - 0.0 - - 10 - - - -
27/02:30am 25.9 N 4 6 1008.8 - 0.0 - - 10 - - - -
27/02:00am 26.4 N 6 8 1008.8 - 0.0 - - 10 - - - -
27/01:30am 26.4 N 6 8 1009.2 - 0.0 - - 10 - - - -
27/01:00am 26.4 N 6 10 1009.5 - 0.0 - - 10 - - - -
27/12:30am 26.5 N 6 9 1009.8 - 0.0 - - 10 - - - -
27/12:00am 26.5 N 6 8 1009.8 - 0.0 - - 10 - - - -
 
Date/Time
WST
Temp
°C
Wind Pressure Rain since
9am
mm
Weather Cloud Vis
km
Sea
Height
m
Swell
Dir  Spd
kts
Gust
kts
hPa Trend Height
m
Period
s
Dir
26/11:30pm 26.4 N 4 6 1010.2 - 0.0 - - 10 - - - -
26/11:00pm 26.7 N 6 8 1010.4 - 0.0 - - 10 - - - -
26/10:30pm 26.8 N 5 7 1010.6 - 0.0 - - 10 - - - -
26/10:00pm 27.0 N 5 8 1010.8 - 0.0 - - 10 - - - -
26/09:30pm 27.3 N 5 7 1010.7 - 0.0 - - 10 - - - -
26/09:00pm 27.5 N 6 9 1010.1 - 0.0 - - 10 - - - -
26/08:30pm 27.6 N 7 10 1009.6 - 0.0 - - 10 - - - -
26/08:00pm 27.9 N 7 9 1009.3 - 0.0 - - 10 - - - -
26/07:30pm 28.5 N 8 12 1008.6 - 0.0 - - 10 - - - -
26/07:00pm 28.6 N 8 12 1007.9 - 0.0 - - 10 - - - -
26/06:30pm 28.7 NNW 9 14 1007.2 - 0.0 - - 10 - - - -
26/06:00pm 29.0 NNW 10 14 1006.8 - 0.0 - - 10 - - - -
26/05:30pm 29.5 NNW 9 14 1006.5 - 0.0 - - 10 - - - -
26/05:00pm 30.1 NNW 9 13 1006.3 - 0.0 - - 10 - - - -
26/04:30pm 30.6 NNW 11 15 1006.1 - 0.0 - - 10 - - - -
26/04:00pm 31.0 NNW 11 16 1005.9 - 0.0 - - 10 - - - -
26/03:30pm 31.0 NNW 11 15 1006.0 - 0.0 - - 10 - - - -
26/03:00pm 31.0 NW 11 16 1005.7 - 0.0 - Mostly clear 10 - - - -
26/02:30pm 30.9 NW 12 17 1006.2 - 0.0 - Partly cloudy 10 - - - -
26/02:00pm 31.8 WNW 12 17 1006.1 - 0.0 - Partly cloudy 10 - - - -
26/01:30pm 31.7 WNW 13 17 1006.1 - 0.0 - Partly cloudy 10 - - - -
26/01:00pm 32.0 WNW 12 18 1006.3 - 0.0 - Partly cloudy 10 - - - -
26/12:30pm 32.8 NNW 5 8 1006.4 - 0.0 - Partly cloudy 10 - - - -
26/12:00pm 33.7 NE 9 13 1006.6 - 0.0 - Mostly cloudy 10 - - - -
26/11:30am 32.7 NE 9 13 1007.0 - 0.0 - Partly cloudy 10 - - - -
26/11:00am 33.1 NE 9 14 1007.3 - 0.0 - Partly cloudy 10 - - - -
26/10:30am 32.9 ENE 9 14 1007.7 - 0.0 - Partly cloudy 10 - - - -
26/10:00am 32.1 ENE 8 13 1008.2 - 0.0 - - 10 - - - -
26/09:30am 31.2 ENE 9 12 1008.5 - 0.0 - - 10 - - - -
26/09:00am 30.5 NE 7 11 1008.5 - 0.0 - Mostly clear 10 - - - -
26/08:30am 29.7 ENE 6 8 1008.6 - 0.0 - - 10 - - - -
26/08:00am 29.1 NE 7 9 1008.6 - 0.0 - - 10 - - - -
26/07:30am 28.2 E 6 8 1008.2 - 0.0 - - 10 - - - -
26/07:00am 26.5 ENE 5 6 1008.2 - 0.0 - - 10 - - - -
26/06:30am 25.3 NE 4 6 1008.0 - 0.0 - - 10 - - - -
26/06:00am 24.9 NE 2 3 1007.5 - 0.0 - - 10 - - - -
26/05:30am 24.9 NNE 3 4 1007.4 - 0.0 - - 10 - - - -
26/05:00am 24.9 NE 4 5 1007.1 - 0.0 - - 10 - - - -
26/04:30am 25.3 NNE 4 5 1007.2 - 0.0 - Partly cloudy 10 - - - -
26/04:00am 25.4 NE 3 4 1007.1 - 0.0 - - 10 - - - -
26/03:30am 25.5 NNE 4 5 1007.0 - 0.0 - - 10 - - - -
26/03:00am 25.9 N 4 5 1006.7 - 0.0 - - 10 - - - -
26/02:30am 25.7 N 5 6 1007.1 - 0.0 - - 10 - - - -
26/02:00am 25.8 NNE 4 5 1007.0 - 0.0 - - 10 - - - -
26/01:30am 26.0 NE 3 4 1007.5 - 0.0 - - 10 - - - -
26/01:00am 26.2 NNE 3 5 1008.1 - 0.0 - - 10 - - - -
26/12:30am 26.5 NNE 3 4 1007.9 - 0.0 - - 10 - - - -
26/12:00am 26.6 NNE 4 4 1008.0 - 0.0 - Partly cloudy 10 - - - -
 
Date/Time
WST
Temp
°C
Wind Pressure Rain since
9am
mm
Weather Cloud Vis
km
Sea
Height
m
Swell
Dir  Spd
kts
Gust
kts
hPa Trend Height
m
Period
s
Dir
25/11:30pm 26.8 N 4 5 1008.3 - 0.0 - Partly cloudy 10 - - - -
25/11:00pm 27.0 NNE 3 4 1008.6 - 0.0 - Partly cloudy 10 - - - -
25/10:30pm 27.3 N 3 5 1008.6 - 0.0 - - 10 - - - -
25/10:00pm 27.5 NE 3 4 1008.3 - 0.0 - - 10 - - - -
25/09:30pm 28.0 CALM 0 0 1008.2 - 0.0 - - 10 - - - -
25/09:00pm 28.3 N 3 4 1008.0 - 0.0 - - 10 - - - -
25/08:30pm 28.3 CALM 0 0 1008.3 - 0.0 - - 10 - - - -
25/08:00pm 29.0 NNW 1 4 1008.2 - 0.0 - - 10 - - - -
25/07:30pm 29.1 NNW 3 5 1007.5 - 0.0 - - 10 - - - -
25/07:00pm 29.5 NNW 3 5 1006.9 - 0.0 - Partly cloudy 10 - - - -
25/06:30pm 29.5 NNW 3 6 1006.4 - 0.0 - Partly cloudy 10 - - - -
25/06:00pm 29.7 NW 7 10 1005.7 - 0.0 - Partly cloudy 10 - - - -
25/05:30pm 30.1 NW 7 11 1005.6 - 0.0 - - 10 - - - -
25/05:00pm 30.6 WNW 10 12 1005.0 - 0.0 - - 10 - - - -
25/04:30pm 31.1 WNW 10 13 1004.7 - 0.0 - - 10 - - - -
25/04:00pm 31.1 WNW 10 13 1004.6 - 0.0 - - 10 - - - -
25/03:30pm 31.7 WNW 10 14 1004.6 - 0.0 - - 10 - - - -
25/03:00pm 31.4 WNW 11 15 1004.5 - 0.0 - - 10 - - - -
25/02:30pm 31.9 WNW 9 13 1005.0 - 0.0 - Partly cloudy 10 - - - -
25/02:00pm 33.0 SSW 5 8 1005.1 - 0.0 - - 10 - - - -
25/01:30pm 32.7 SW 7 11 1005.5 - 0.0 - Partly cloudy 10 - - - -
25/01:00pm 32.2 SSW 7 9 1005.9 - 0.0 - Partly cloudy 10 - - - -
25/12:30pm 32.4 SSW 7 9 1006.6 - 0.0 - - 10 - - - -
25/12:00pm 31.8 S 7 10 1007.1 - 0.0 - Mostly clear 10 - - - -
25/11:30am 31.4 S 7 9 1007.7 - 0.0 - Partly cloudy 10 - - - -
25/11:00am 31.2 W 9 12 1008.2 - 0.0 - Partly cloudy 10 - - - -
25/10:30am 31.3 SE 7 9 1008.7 - 0.0 - Partly cloudy 10 - - - -
25/10:00am 30.3 SE 7 11 1008.7 - 0.0 - Partly cloudy 10 - - - -
25/09:30am 30.5 SE 6 8 1009.1 - 0.0 - Partly cloudy 10 - - - -
25/09:00am 30.3 ENE 5 6 1009.1 - 0.0 - Mostly clear 10 - - - -
25/08:30am 29.0 NE 5 7 1009.0 - 0.0 - Partly cloudy 10 - - - -
25/08:00am 27.9 E 7 9 1009.0 - 0.0 - Partly cloudy 10 - - - -
25/07:30am 27.5 E 5 7 1008.6 - 0.0 - Partly cloudy 10 - - - -
25/07:00am 26.6 ENE 4 5 1008.5 - 0.0 - Partly cloudy 10 - - - -
25/06:30am 26.1 CALM 0 3 1008.2 - 0.0 - Partly cloudy 10 - - - -
25/06:00am 25.8 E 3 5 1007.7 - 0.0 - Mostly clear 10 - - - -
25/05:30am 25.5 E 5 7 1007.5 - 0.0 - - 10 - - - -
25/05:00am 25.8 CALM 0 0 1006.9 - 0.0 - - 10 - - - -
25/04:30am 25.9 N 3 4 1006.6 - 0.0 - - 10 - - - -
25/04:00am 25.9 NE 1 3 1006.6 - 0.0 - - 10 - - - -
25/03:30am 26.0 ENE 3 4 1006.6 - 0.0 - - 10 - - - -
25/03:00am 26.3 E 4 5 1006.8 - 0.0 - Mostly clear 10 - - - -
25/02:30am 26.5 N 1 4 1007.0 - 0.0 - - 10 - - - -
25/02:00am 26.8 N 4 5 1007.4 - 0.0 - Partly cloudy 10 - - - -
25/01:30am 26.7 N 1 4 1007.5 - 0.0 - - 10 - - - -
25/01:00am 26.9 N 4 5 1007.8 - 0.0 - Partly cloudy 10 - - - -
25/12:30am 27.4 NNE 4 5 1008.0 - 0.0 - Partly cloudy 10 - - - -
25/12:00am 28.4 NW 5 6 1008.0 - 0.0 - Partly cloudy 10 - - - -
 
Date/Time
WST
Temp
°C
Wind Pressure Rain since
9am
mm
Weather Cloud Vis
km
Sea
Height
m
Swell
Dir  Spd
kts
Gust
kts
hPa Trend Height
m
Period
s
Dir
24/11:30pm 28.5 NW 4 6 1008.2 - 0.0 - Partly cloudy 10 - - - -
24/11:00pm 28.5 NW 5 7 1008.4 - 0.0 - Partly cloudy 10 - - - -
24/10:30pm 28.6 NW 5 8 1008.5 - 0.0 - Partly cloudy 10 - - - -
24/10:00pm 28.7 WNW 5 9 1008.6 - 0.0 - Partly cloudy 10 - - - -
24/09:30pm 28.7 WNW 5 7 1008.7 - 0.0 - Partly cloudy 10 - - - -
24/09:00pm 28.7 WNW 5 7 1008.4 - 0.0 - Partly cloudy 10 - - - -
24/08:30pm 28.9 WNW 6 10 1008.3 - 0.0 - Partly cloudy 10 - - - -
24/08:00pm 29.0 WNW 7 11 1007.8 - 0.0 - Partly cloudy 10 - - - -
24/07:30pm 28.9 WNW 6 7 1007.6 - 0.0 - Partly cloudy 10 - - - -
24/07:00pm 29.2 WNW 7 10 1007.4 - 0.0 - - 10 - - - -
24/06:30pm 29.2 WNW 9 14 1006.9 - 0.0 - - 10 - - - -
24/06:00pm 29.2 WNW 8 11 1006.2 - 0.0 - - 10 - - - -
24/05:30pm 29.5 WNW 8 10 1006.1 - 0.0 - - 10 - - - -
24/05:00pm 29.6 WNW 7 9 1006.1 - 0.0 - - 10 - - - -
24/04:30pm 29.6 WNW 9 11 1005.9 - 0.0 - - 10 - - - -
24/04:00pm 30.0 W 9 11 1006.0 - 0.0 - - 10 - - - -
24/03:30pm 30.6 NW 8 11 1006.3 - 0.0 - Partly cloudy 10 - - - -
24/03:00pm 31.3 NW 8 12 1006.1 - 0.0 - Mostly clear 10 - - - -
24/02:30pm 31.0 WNW 9 13 1006.5 - 0.0 - Partly cloudy 10 - - - -
24/02:00pm 30.9 NW 11 15 1006.9 - 0.0 - - 10 - - - -
24/01:30pm 30.9 NNW 11 15 1007.3 - 0.0 - Mostly clear 10 - - - -
24/01:00pm 31.3 NW 10 14 1007.7 - 0.0 - Partly cloudy 10 - - - -
24/12:30pm 31.2 NW 9 13 1008.1 - 0.0 - Partly cloudy 10 - - - -
24/12:00pm 30.7 NW 10 13 1008.3 - 0.0 - Mostly clear 10 - - - -
24/11:30am 31.3 NW 9 12 1008.8 - 0.0 - Partly cloudy 10 - - - -
24/11:00am 30.5 NNW 9 13 1009.1 - 0.0 - Partly cloudy 10 - - - -
24/10:30am 30.2 NW 9 13 1009.3 - 0.0 - Partly cloudy 10 - - - -
24/10:00am 30.1 NW 8 12 1009.2 - 0.0 - Partly cloudy 10 - - - -
24/09:30am 29.8 NNW 7 11 1009.3 - 0.0 - Mostly clear 10 - - - -
24/09:00am 29.8 NNW 8 11 1009.2 - 8.8 - Mostly cloudy 10 - - - -
24/08:30am 29.1 NNW 7 8 1009.2 - 8.8 Drizzle Mostly clear 10 - - - -
24/08:00am 28.7 NNW 7 10 1009.3 - 8.8 - Mostly clear 10 - - - -
24/07:30am 28.7 NNW 6 8 1009.3 - 8.8 - Mostly clear 10 - - - -
24/07:00am 28.4 NNW 5 9 1008.9 - 8.8 - Partly cloudy 10 - - - -
24/06:30am 26.8 N 4 5 1008.4 - 8.8 - Partly cloudy 10 - - - -
24/06:00am 27.8 NNW 5 8 1008.0 - 8.8 - Mostly clear 10 - - - -
24/05:30am 27.6 NNW 5 8 1007.7 - 8.8 - Partly cloudy 10 - - - -
24/05:00am 26.0 N 5 6 1007.6 - 8.8 - Partly cloudy 10 - - - -

Other Formats:

Comma delimited format used in spreadsheet applications
http://www.bom.gov.au/fwo/IDW60701/IDW60701.94203.axf

JavaScript Object Notation format (JSON) in row-major order
http://www.bom.gov.au/fwo/IDW60701/IDW60701.94203.json